עמוד ראשי
METAR-TAF:

METAR-TAF

שדות תעופה :

St. George Municipal Airport

St. George, יוטה, ארצות הברית

קו רוחב: 37-05N, קו אורך: 113-36W, גובה: 896מטר

תצפית מזג אוויר נוכחית

הדו"ח נערך לפני 29דקות, בשעה 12:56 UTC
רוח 5קשר מכיוון דרום-מזרח
טמפרטורת 25 צלסיוס
לחות 69%
לחץ 1020 hPa
ראות: 16.1קילומטר
שמיים נקיים

METAR: KSGU 251256Z AUTO 13005KT 10SM CLR 25/19 A3011 RMK AO2 SLP156 T02500194

זמן: 07:25 (13:25 UTC)

תחזית

הדו"ח נערך לפני 2 שעות ו 1דקות, בשעה 11:24 UTC
תחזית בתוקף מ 25 ב 12 UTC עד 26 ב 12 UTC
רוח 6קשר מכיוון מערב/דרום-מערב
ראות: 10קילומטר
עננים פזורים בגובה 15000רגל
מ 25 ב 2000UTC
רוח 10קשר מכיוון מערב/דרום-מערב עם משבים עד 20קשר
ראות: 10קילומטר
עננים פזורים בגובה 15000רגל
מ 26 ב 0300UTC
רוח 4קשר עם כיוונים משתנים
ראות: 10קילומטר
מעט עננים בגובה 15000רגל

TAF: KSGU 251124Z 2512/2612 25006KT P6SM SCT150 FM252000 25010G20KT P6SM SCT150 FM260300 VRB04KT P6SM FEW150

תצפיות ותחזיות מזג אוויר לגבי יותר מ- 4,000 שדות תעופה ברחבי העולם. דוחות METAR ו- TAF.

התחנות הזמינות מסומנות בנקודות צהובות ואדומות על גבי המפה.

העבר את העכבר לנקודה הצבעונית על מנת לראות את שם התחנה.

לאחר מכן, לחץ כדי לראות את תוכן ואת תחזיות מזג האוויר.

כדי לשנות את המפה: לחץ על הכפתורים הירוקים עם הפלוס השחור כדי להתקרב; על הכפתור הירוק עם המקף כדי להתרחק; או בחיצים הירוקים למפות סמוכות.


METAR-TAF: